createdAt,value
2023-05-19T00:00:15.683Z,27.92
2023-05-19T00:03:24.680Z,26.30
2023-05-19T00:06:32.011Z,29.55
2023-05-19T00:09:46.690Z,29.07
2023-05-19T00:12:53.840Z,27.17
2023-05-19T00:16:00.283Z,29.75
2023-05-19T00:19:04.525Z,27.75
2023-05-19T00:22:10.267Z,28.65
2023-05-19T00:25:12.918Z,31.97
2023-05-19T00:28:21.921Z,30.97
2023-05-19T00:31:27.120Z,30.02
2023-05-19T00:34:34.093Z,26.88
2023-05-19T00:37:36.711Z,25.77
2023-05-19T00:40:41.941Z,25.83
2023-05-19T00:43:44.738Z,27.87
2023-05-19T00:46:47.465Z,26.98
2023-05-19T00:49:54.114Z,26.48
2023-05-19T00:52:57.083Z,25.33
2023-05-19T00:56:00.717Z,29.03
2023-05-19T00:59:04.697Z,28.90
2023-05-19T01:02:07.771Z,31.23
2023-05-19T01:05:10.652Z,26.63
2023-05-19T01:08:13.810Z,28.90
2023-05-19T01:11:19.166Z,30.57
2023-05-19T01:14:22.237Z,31.67
2023-05-19T01:17:45.131Z,31.15
2023-05-19T01:20:53.918Z,32.35
2023-05-19T01:24:23.356Z,27.55
2023-05-19T01:27:51.212Z,29.23
2023-05-19T01:30:55.930Z,32.43
2023-05-19T01:33:59.408Z,32.45
2023-05-19T01:37:03.737Z,30.88
2023-05-19T01:40:08.204Z,33.00
2023-05-19T01:43:14.153Z,31.90
2023-05-19T01:46:18.038Z,27.20
2023-05-19T01:49:23.972Z,27.15
2023-05-19T01:52:29.528Z,29.80
2023-05-19T01:55:32.477Z,25.75
2023-05-19T01:58:44.897Z,28.43
2023-05-19T02:01:57.489Z,25.83
2023-05-19T02:05:13.650Z,26.77
2023-05-19T02:08:40.169Z,27.02
2023-05-19T02:11:53.654Z,28.63
2023-05-19T02:15:09.996Z,32.07
2023-05-19T02:18:14.336Z,29.80
2023-05-19T02:21:17.708Z,31.05
2023-05-19T02:24:23.062Z,30.60
2023-05-19T02:27:26.465Z,27.95
2023-05-19T02:30:30.415Z,28.53
2023-05-19T02:33:36.536Z,29.93
2023-05-19T02:36:45.735Z,35.38
2023-05-19T02:39:50.183Z,32.85
2023-05-19T02:42:55.921Z,33.30
2023-05-19T02:46:04.504Z,34.33
2023-05-19T02:49:14.520Z,34.17
2023-05-19T02:52:17.340Z,35.05
2023-05-19T02:55:20.271Z,29.00
2023-05-19T02:58:28.420Z,32.28
2023-05-19T03:01:32.826Z,29.07
2023-05-19T03:04:41.875Z,34.77
2023-05-19T03:07:44.947Z,38.22
2023-05-19T03:10:47.987Z,29.25
2023-05-19T03:13:50.793Z,26.73
2023-05-19T03:16:53.902Z,27.57
2023-05-19T03:20:00.537Z,28.37
2023-05-19T03:23:03.297Z,34.97
2023-05-19T03:26:08.414Z,27.63
2023-05-19T03:29:11.585Z,25.70
2023-05-19T03:32:15.798Z,27.37
2023-05-19T03:35:18.967Z,32.93
2023-05-19T03:38:21.753Z,46.30
2023-05-19T03:41:34.505Z,65.70
2023-05-19T03:44:44.840Z,46.40
2023-05-19T03:47:51.243Z,30.87
2023-05-19T03:51:05.094Z,30.93
2023-05-19T03:54:08.429Z,26.83
2023-05-19T03:57:11.476Z,45.15
2023-05-19T04:00:20.448Z,32.95
2023-05-19T04:03:34.618Z,25.83
2023-05-19T04:06:40.456Z,24.27
2023-05-19T04:09:46.383Z,25.15
2023-05-19T04:12:49.197Z,23.30
2023-05-19T04:15:54.824Z,33.10
2023-05-19T04:18:57.601Z,25.73
2023-05-19T04:22:00.772Z,26.47
2023-05-19T04:25:08.644Z,21.77
2023-05-19T04:28:13.694Z,27.48
2023-05-19T04:31:16.680Z,24.20
2023-05-19T04:34:20.160Z,20.63
2023-05-19T04:37:24.376Z,22.73
2023-05-19T04:40:31.643Z,29.23
2023-05-19T04:43:34.764Z,21.23
2023-05-19T04:46:37.783Z,22.88
2023-05-19T04:49:41.648Z,21.37
2023-05-19T04:52:47.595Z,21.57
2023-05-19T04:55:51.134Z,21.42
2023-05-19T04:58:54.073Z,21.67
2023-05-19T05:01:57.743Z,19.65
2023-05-19T05:05:23.501Z,17.47
2023-05-19T05:08:27.327Z,21.70
2023-05-19T05:11:30.681Z,21.30
2023-05-19T05:14:34.160Z,21.40
2023-05-19T05:17:37.930Z,22.33
2023-05-19T05:20:43.135Z,19.90
2023-05-19T05:23:49.340Z,23.30
2023-05-19T05:26:56.120Z,21.10
2023-05-19T05:29:59.351Z,21.52
2023-05-19T05:33:09.979Z,21.10
2023-05-19T05:36:21.466Z,18.30
2023-05-19T05:39:32.098Z,15.17
2023-05-19T05:42:38.299Z,17.38
2023-05-19T05:45:42.012Z,17.73
2023-05-19T05:48:50.777Z,18.35
2023-05-19T05:52:05.009Z,17.53
2023-05-19T05:55:21.267Z,20.53
2023-05-19T05:58:24.873Z,17.70
2023-05-19T06:01:28.344Z,14.55
2023-05-19T06:04:31.219Z,15.70
2023-05-19T06:07:34.305Z,16.80
2023-05-19T06:10:39.180Z,21.70
2023-05-19T06:13:44.766Z,16.15
2023-05-19T06:16:55.167Z,16.70
2023-05-19T06:35:20.626Z,12.30
2023-05-19T06:38:23.800Z,11.55
2023-05-19T06:41:27.121Z,11.45
2023-05-19T06:44:30.036Z,15.00
2023-05-19T10:00:20.256Z,8.80
2023-05-19T10:03:24.173Z,8.18
2023-05-19T10:06:27.154Z,8.23
2023-05-19T10:09:30.126Z,8.90
2023-05-19T10:12:33.493Z,8.63
2023-05-19T10:15:50.080Z,10.03
2023-05-19T10:19:00.935Z,8.80
2023-05-19T10:22:06.435Z,7.53
2023-05-19T10:25:10.813Z,7.38
2023-05-19T10:28:16.421Z,10.17
2023-05-19T10:31:22.709Z,8.83
2023-05-19T10:34:40.666Z,7.85
2023-05-19T10:37:52.100Z,10.73
2023-05-19T10:40:54.778Z,14.63
2023-05-19T10:44:19.329Z,8.37
2023-05-19T10:47:31.721Z,12.20
2023-05-19T10:50:38.052Z,8.55
2023-05-19T10:53:47.520Z,8.85
2023-05-19T10:56:50.203Z,9.48
2023-05-19T10:59:52.786Z,8.40
2023-05-19T11:03:13.710Z,7.77
2023-05-19T11:06:30.948Z,7.43
2023-05-19T11:09:40.731Z,7.90
2023-05-19T11:12:46.053Z,8.88
2023-05-19T11:15:50.169Z,9.30
2023-05-19T11:18:55.052Z,9.40
2023-05-19T11:22:08.285Z,9.63
2023-05-19T11:25:10.967Z,8.38
2023-05-19T11:28:16.980Z,7.60
2023-05-19T11:31:19.677Z,7.27
2023-05-19T11:34:26.095Z,8.83
2023-05-19T11:37:32.286Z,8.40
2023-05-19T11:40:36.387Z,9.27
2023-05-19T11:43:39.107Z,7.43
2023-05-19T11:46:41.785Z,7.50
2023-05-19T11:49:47.905Z,6.80
2023-05-19T11:52:52.012Z,7.88
2023-05-19T11:56:03.044Z,6.18
2023-05-19T11:59:06.067Z,6.28
2023-05-19T12:02:20.060Z,6.50
2023-05-19T12:05:24.601Z,8.67
2023-05-19T12:08:29.346Z,6.95
2023-05-19T12:11:32.071Z,8.75
2023-05-19T12:14:36.032Z,6.20
2023-05-19T12:17:38.747Z,6.73
2023-05-19T12:20:41.514Z,6.93
2023-05-19T12:23:47.162Z,6.72
2023-05-19T12:26:50.565Z,7.60
2023-05-19T12:29:57.356Z,8.10
2023-05-19T12:33:02.945Z,6.83
2023-05-19T12:36:09.374Z,7.50
2023-05-19T12:39:14.189Z,5.53
2023-05-19T12:42:17.656Z,7.30
2023-05-19T12:45:26.009Z,6.22
2023-05-19T12:48:31.638Z,7.90
2023-05-19T12:51:42.976Z,10.10
2023-05-19T12:54:48.610Z,6.22
2023-05-19T12:57:57.188Z,8.52
2023-05-19T13:01:00.537Z,6.60
2023-05-19T13:04:06.649Z,5.73
2023-05-19T13:07:09.900Z,9.57
2023-05-19T13:10:14.847Z,7.90
2023-05-19T13:13:17.735Z,7.47
2023-05-19T13:16:20.393Z,8.15
2023-05-19T13:19:26.270Z,7.67
2023-05-19T13:22:28.970Z,7.60
2023-05-19T13:25:35.209Z,5.80
2023-05-19T13:28:37.874Z,12.55
2023-05-19T13:31:41.217Z,7.80
2023-05-19T13:34:44.090Z,7.43
2023-05-19T13:37:49.969Z,6.50
2023-05-19T13:40:52.640Z,6.95
2023-05-19T13:44:01.147Z,7.15
2023-05-19T13:47:03.813Z,8.27
2023-05-19T13:50:09.861Z,7.13
2023-05-19T13:53:12.563Z,7.73
2023-05-19T13:56:15.555Z,6.85
2023-05-19T13:59:18.207Z,6.03
2023-05-19T14:02:24.405Z,6.68
2023-05-19T14:05:29.146Z,7.00
2023-05-19T14:08:34.086Z,9.10
2023-05-19T14:11:36.737Z,6.93
2023-05-19T14:14:41.725Z,6.70
2023-05-19T14:17:44.451Z,12.10
2023-05-19T14:20:50.225Z,6.83
2023-05-19T14:23:52.927Z,7.53
2023-05-19T14:26:58.047Z,6.88
2023-05-19T14:30:00.712Z,7.10
2023-05-19T14:33:03.421Z,7.00
2023-05-19T14:36:10.476Z,7.50
2023-05-19T14:39:13.206Z,5.97
2023-05-19T14:42:15.849Z,6.47
2023-05-19T14:45:18.550Z,8.55
2023-05-19T14:48:23.414Z,6.38
2023-05-19T14:51:26.032Z,6.80
2023-05-19T14:54:28.617Z,7.50
2023-05-19T14:57:36.952Z,7.22
2023-05-19T15:00:39.780Z,6.78
2023-05-19T15:03:49.754Z,7.50
2023-05-19T15:07:05.740Z,8.53
2023-05-19T15:10:14.430Z,7.43
2023-05-19T15:13:19.169Z,10.60
2023-05-19T15:16:21.850Z,7.65
2023-05-19T15:19:24.747Z,6.47
2023-05-19T15:22:27.569Z,8.70
2023-05-19T15:25:30.862Z,6.50
2023-05-19T15:28:34.289Z,7.03
2023-05-19T15:31:39.633Z,7.53
2023-05-19T15:34:45.224Z,8.95
2023-05-19T15:37:47.805Z,8.53
2023-05-19T15:40:50.406Z,8.73
2023-05-19T15:43:56.449Z,7.13
2023-05-19T15:47:01.670Z,6.43
2023-05-19T15:50:04.506Z,11.02
2023-05-19T15:53:08.395Z,8.40
2023-05-19T15:56:11.122Z,8.80
2023-05-19T15:59:13.878Z,8.43
2023-05-19T16:02:16.666Z,6.55
2023-05-19T16:05:19.470Z,8.95
2023-05-19T16:08:22.455Z,9.70
2023-05-19T16:11:25.122Z,7.63
2023-05-19T16:14:31.150Z,8.38
2023-05-19T16:17:34.048Z,7.45
2023-05-19T16:20:36.730Z,8.68
2023-05-19T16:23:40.478Z,9.60
2023-05-19T16:26:43.081Z,8.30
2023-05-19T16:29:51.061Z,11.05
2023-05-19T16:32:56.304Z,7.88
2023-05-19T16:36:00.086Z,12.65
2023-05-19T16:39:02.766Z,13.40
2023-05-19T16:42:05.688Z,8.70
2023-05-19T16:45:08.999Z,8.95
2023-05-19T16:48:11.620Z,9.35
2023-05-19T16:51:14.222Z,6.32
2023-05-19T16:54:16.861Z,11.60
2023-05-19T16:57:22.455Z,9.57
2023-05-19T17:00:27.593Z,9.05
2023-05-19T17:03:32.992Z,9.30
2023-05-19T17:06:35.980Z,12.23
2023-05-19T17:09:38.567Z,24.63
2023-05-19T17:12:41.124Z,17.00
2023-05-19T17:15:43.725Z,16.40
2023-05-19T17:18:56.719Z,12.90
2023-05-19T17:21:59.509Z,19.48
2023-05-19T17:25:07.746Z,20.57
2023-05-19T17:28:16.485Z,13.30
2023-05-19T17:31:21.319Z,19.13
2023-05-19T17:34:24.018Z,14.30
2023-05-19T17:37:27.348Z,12.50
2023-05-19T17:40:30.137Z,11.17
2023-05-19T17:43:32.762Z,18.07
2023-05-19T17:46:39.440Z,16.17
2023-05-19T17:49:47.916Z,18.15
2023-05-19T17:52:54.614Z,14.88
2023-05-19T17:55:59.682Z,15.97
2023-05-19T17:59:03.213Z,11.10
2023-05-19T18:02:06.264Z,18.23
2023-05-19T18:05:14.854Z,19.48
2023-05-19T18:08:18.236Z,17.10
2023-05-19T18:11:21.469Z,15.27
2023-05-19T18:14:24.252Z,16.67
2023-05-19T18:17:26.896Z,12.55
2023-05-19T18:20:31.201Z,16.33
2023-05-19T18:23:34.019Z,17.95
2023-05-19T18:26:41.784Z,11.20
2023-05-19T18:29:44.516Z,12.27
2023-05-19T18:32:47.168Z,9.80
2023-05-19T18:35:50.341Z,12.02
2023-05-19T18:38:58.225Z,14.82
2023-05-19T18:42:04.770Z,14.83
2023-05-19T18:45:13.539Z,20.03
2023-05-19T18:48:18.131Z,12.25
2023-05-19T18:51:26.984Z,19.70
2023-05-19T18:54:29.759Z,15.52
2023-05-19T18:57:32.376Z,14.83
2023-05-19T19:00:37.854Z,14.77
2023-05-19T19:03:42.040Z,18.85
2023-05-19T19:06:44.768Z,22.92
2023-05-19T19:09:47.370Z,30.17
2023-05-19T19:12:50.094Z,25.13
2023-05-19T19:15:52.986Z,26.80
2023-05-19T19:18:55.798Z,26.65
2023-05-19T19:21:58.543Z,25.20
2023-05-19T19:25:03.820Z,30.92
2023-05-19T19:28:09.275Z,22.10
2023-05-19T19:31:12.080Z,25.67
2023-05-19T19:34:14.774Z,29.20
2023-05-19T19:37:19.769Z,26.33
2023-05-19T19:40:26.450Z,27.40
2023-05-19T19:43:29.134Z,28.50
2023-05-19T19:46:34.593Z,27.47
2023-05-19T19:49:37.188Z,27.88
2023-05-19T19:52:41.163Z,36.85
2023-05-19T19:55:43.966Z,30.35
2023-05-19T19:58:46.661Z,25.30
2023-05-19T20:01:52.181Z,20.43
2023-05-19T20:04:57.821Z,25.27
2023-05-19T20:08:00.829Z,27.52
2023-05-19T20:11:03.560Z,34.17
2023-05-19T20:14:06.424Z,33.77
2023-05-19T20:17:09.159Z,32.50
2023-05-19T20:20:12.373Z,32.60
2023-05-19T20:23:16.316Z,29.77
2023-05-19T20:26:19.070Z,31.58
2023-05-19T20:29:25.103Z,34.40
2023-05-19T20:32:30.579Z,27.70
2023-05-19T20:35:33.458Z,26.38
2023-05-19T20:38:36.313Z,31.92
2023-05-19T20:41:38.992Z,30.05
2023-05-19T20:44:41.713Z,30.93
2023-05-19T20:47:44.474Z,34.90
2023-05-19T20:50:47.103Z,39.17
2023-05-19T20:53:52.039Z,30.15
2023-05-19T20:56:59.426Z,32.38
2023-05-19T21:00:05.683Z,24.40
2023-05-19T21:03:11.763Z,24.27
2023-05-19T21:06:14.546Z,32.63
2023-05-19T21:09:17.239Z,27.38
2023-05-19T21:12:24.038Z,31.63
2023-05-19T21:15:27.289Z,22.90
2023-05-19T21:18:29.907Z,23.10
2023-05-19T21:21:33.599Z,21.52
2023-05-19T21:24:36.340Z,25.52
2023-05-19T21:27:42.128Z,24.60
2023-05-19T21:30:49.095Z,25.40
2023-05-19T21:33:51.874Z,22.47
2023-05-19T21:36:54.544Z,26.35
2023-05-19T21:40:00.049Z,26.30
2023-05-19T21:43:03.917Z,23.42
2023-05-19T21:46:09.650Z,25.57
2023-05-19T21:49:12.339Z,28.13
2023-05-19T21:52:15.070Z,27.08
2023-05-19T21:55:17.667Z,33.28
2023-05-19T21:58:20.520Z,26.55
2023-05-19T22:01:31.651Z,29.53
2023-05-19T22:04:34.404Z,27.00
2023-05-19T22:07:37.142Z,27.52
2023-05-19T22:10:39.880Z,22.92
2023-05-19T22:13:42.703Z,19.98
2023-05-19T22:16:47.595Z,19.40
2023-05-19T22:19:50.487Z,36.67
2023-05-19T22:22:53.118Z,20.50
2023-05-19T22:25:55.961Z,21.08
2023-05-19T22:28:58.536Z,20.80
2023-05-19T22:32:12.326Z,18.87
2023-05-19T22:35:15.162Z,19.87
2023-05-19T22:38:17.786Z,21.38
2023-05-19T22:41:20.436Z,18.10
2023-05-19T22:44:23.182Z,21.25
2023-05-19T22:47:25.957Z,20.87
2023-05-19T22:50:28.758Z,24.17
2023-05-19T22:53:31.436Z,20.25
2023-05-19T22:56:34.259Z,20.33
2023-05-19T22:59:38.382Z,22.25
2023-05-19T23:02:45.276Z,21.87
2023-05-19T23:05:47.911Z,19.30
2023-05-19T23:09:04.121Z,19.27
2023-05-19T23:12:07.140Z,17.55
2023-05-19T23:15:11.126Z,16.55
2023-05-19T23:18:16.689Z,26.07
2023-05-19T23:21:19.497Z,20.37
2023-05-19T23:24:22.171Z,20.25
2023-05-19T23:27:24.883Z,22.75
2023-05-19T23:30:31.507Z,23.02
2023-05-19T23:33:34.147Z,21.70
2023-05-19T23:36:37.071Z,20.07
2023-05-19T23:39:42.773Z,18.13
2023-05-19T23:42:47.972Z,18.70
2023-05-19T23:45:50.771Z,19.42
2023-05-19T23:48:53.416Z,22.77
2023-05-19T23:51:56.173Z,23.70
2023-05-19T23:54:58.921Z,22.85
2023-05-19T23:58:04.322Z,20.98
